Terminal Aerodrome Forecast
Issued by NWS

Home | Current Version | Previous Version | Text Only | Print | Product List | Glossary On
Versions: 1 2 3 4 5 6 7 8 9 10 11 12 13 14 15 16 17
646
FTUS46 KMTR 240807 AAA
TAFMRY
TAF AMD
KMRY 240807Z 2408/2506 35003KT P6SM OVC006
     FM241600 28004KT P6SM OVC010
     FM241800 28008KT P6SM FEW012
     FM250200 28004KT P6SM OVC008=

USA.gov is the U.S. government's official web portal to all federal, state and local government web resources and services.